sensor_id;sensor_type;location;lat;lon;timestamp;P1;durP1;ratioP1;P2;durP2;ratioP2
30335;SDS011;17142;47.990;7.846;2023-06-24T00:01:29;5.43;;;4.93;;
30335;SDS011;17142;47.990;7.846;2023-06-24T00:03:56;5.80;;;5.20;;
30335;SDS011;17142;47.990;7.846;2023-06-24T00:06:24;8.50;;;5.20;;
30335;SDS011;17142;47.990;7.846;2023-06-24T00:08:51;6.73;;;5.70;;
30335;SDS011;17142;47.990;7.846;2023-06-24T00:11:28;7.00;;;5.30;;
30335;SDS011;17142;47.990;7.846;2023-06-24T00:13:54;6.03;;;4.87;;
30335;SDS011;17142;47.990;7.846;2023-06-24T00:16:20;5.10;;;4.60;;
30335;SDS011;17142;47.990;7.846;2023-06-24T00:18:52;5.23;;;4.60;;
30335;SDS011;17142;47.990;7.846;2023-06-24T00:21:27;6.27;;;5.63;;
30335;SDS011;17142;47.990;7.846;2023-06-24T00:23:56;6.63;;;4.77;;
30335;SDS011;17142;47.990;7.846;2023-06-24T00:26:23;6.17;;;5.57;;
30335;SDS011;17142;47.990;7.846;2023-06-24T00:28:49;10.23;;;4.73;;
30335;SDS011;17142;47.990;7.846;2023-06-24T00:31:14;7.30;;;5.40;;
30335;SDS011;17142;47.990;7.846;2023-06-24T00:33:40;5.97;;;4.80;;
30335;SDS011;17142;47.990;7.846;2023-06-24T00:36:06;8.10;;;5.20;;
30335;SDS011;17142;47.990;7.846;2023-06-24T00:38:38;5.47;;;4.80;;
30335;SDS011;17142;47.990;7.846;2023-06-24T00:41:04;7.20;;;5.20;;
30335;SDS011;17142;47.990;7.846;2023-06-24T00:43:32;7.30;;;4.80;;
30335;SDS011;17142;47.990;7.846;2023-06-24T00:45:58;7.60;;;5.60;;
30335;SDS011;17142;47.990;7.846;2023-06-24T06:25:01;4.40;;;4.00;;
30335;SDS011;17142;47.990;7.846;2023-06-24T06:27:29;4.40;;;4.00;;
30335;SDS011;17142;47.990;7.846;2023-06-24T06:29:57;3.30;;;3.00;;
30335;SDS011;17142;47.990;7.846;2023-06-24T06:32:22;3.63;;;3.33;;
30335;SDS011;17142;47.990;7.846;2023-06-24T06:34:48;4.07;;;3.67;;
30335;SDS011;17142;47.990;7.846;2023-06-24T06:37:13;4.30;;;3.50;;
30335;SDS011;17142;47.990;7.846;2023-06-24T06:39:39;4.43;;;4.03;;
30335;SDS011;17142;47.990;7.846;2023-06-24T06:42:05;5.70;;;3.57;;
30335;SDS011;17142;47.990;7.846;2023-06-24T06:44:33;4.00;;;3.70;;
30335;SDS011;17142;47.990;7.846;2023-06-24T06:47:01;4.80;;;4.30;;
30335;SDS011;17142;47.990;7.846;2023-06-24T06:49:29;6.63;;;3.90;;
30335;SDS011;17142;47.990;7.846;2023-06-24T06:51:57;4.30;;;3.90;;
30335;SDS011;17142;47.990;7.846;2023-06-24T06:54:22;4.70;;;3.60;;
30335;SDS011;17142;47.990;7.846;2023-06-24T06:56:48;4.13;;;3.70;;
30335;SDS011;17142;47.990;7.846;2023-06-24T06:59:13;7.10;;;4.10;;
30335;SDS011;17142;47.990;7.846;2023-06-24T07:01:39;4.50;;;3.77;;
30335;SDS011;17142;47.990;7.846;2023-06-24T07:04:05;4.63;;;4.20;;
30335;SDS011;17142;47.990;7.846;2023-06-24T07:06:30;4.20;;;3.80;;
30335;SDS011;17142;47.990;7.846;2023-06-24T07:08:57;4.70;;;4.30;;
30335;SDS011;17142;47.990;7.846;2023-06-24T07:11:23;4.80;;;4.07;;
30335;SDS011;17142;47.990;7.846;2023-06-24T07:13:49;3.70;;;3.10;;
30335;SDS011;17142;47.990;7.846;2023-06-24T07:16:16;4.13;;;3.73;;
30335;SDS011;17142;47.990;7.846;2023-06-24T07:18:42;4.60;;;4.20;;
30335;SDS011;17142;47.990;7.846;2023-06-24T07:21:10;4.97;;;4.50;;
30335;SDS011;17142;47.990;7.846;2023-06-24T07:23:36;4.03;;;3.70;;
30335;SDS011;17142;47.990;7.846;2023-06-24T07:26:01;4.37;;;4.03;;
30335;SDS011;17142;47.990;7.846;2023-06-24T07:28:27;3.87;;;3.43;;
30335;SDS011;17142;47.990;7.846;2023-06-24T07:30:53;4.10;;;3.70;;
30335;SDS011;17142;47.990;7.846;2023-06-24T07:33:18;4.03;;;3.73;;
30335;SDS011;17142;47.990;7.846;2023-06-24T07:35:44;5.10;;;3.77;;
30335;SDS011;17142;47.990;7.846;2023-06-24T07:38:10;6.07;;;5.47;;
30335;SDS011;17142;47.990;7.846;2023-06-24T07:40:35;5.20;;;4.13;;
30335;SDS011;17142;47.990;7.846;2023-06-24T07:43:03;5.97;;;4.33;;
30335;SDS011;17142;47.990;7.846;2023-06-24T07:45:29;5.63;;;3.43;;
30335;SDS011;17142;47.990;7.846;2023-06-24T07:47:54;4.67;;;3.70;;
30335;SDS011;17142;47.990;7.846;2023-06-24T07:50:22;4.00;;;3.33;;
30335;SDS011;17142;47.990;7.846;2023-06-24T07:52:49;6.60;;;3.80;;
30335;SDS011;17142;47.990;7.846;2023-06-24T07:55:14;3.37;;;3.07;;
30335;SDS011;17142;47.990;7.846;2023-06-24T07:57:43;3.03;;;2.83;;
30335;SDS011;17142;47.990;7.846;2023-06-24T08:00:10;3.63;;;3.33;;
30335;SDS011;17142;47.990;7.846;2023-06-24T08:02:36;3.67;;;3.37;;
30335;SDS011;17142;47.990;7.846;2023-06-24T08:05:02;5.23;;;3.70;;
30335;SDS011;17142;47.990;7.846;2023-06-24T08:07:28;3.97;;;3.37;;
30335;SDS011;17142;47.990;7.846;2023-06-24T08:09:53;4.50;;;3.70;;
30335;SDS011;17142;47.990;7.846;2023-06-24T08:12:19;4.67;;;3.30;;
30335;SDS011;17142;47.990;7.846;2023-06-24T08:14:47;5.50;;;3.63;;
30335;SDS011;17142;47.990;7.846;2023-06-24T08:17:13;4.40;;;4.00;;
30335;SDS011;17142;47.990;7.846;2023-06-24T08:19:38;3.93;;;3.60;;
30335;SDS011;17142;47.990;7.846;2023-06-24T08:22:04;3.40;;;3.10;;
30335;SDS011;17142;47.990;7.846;2023-06-24T08:24:32;4.10;;;3.70;;
30335;SDS011;17142;47.990;7.846;2023-06-24T08:26:58;3.93;;;3.43;;
30335;SDS011;17142;47.990;7.846;2023-06-24T08:29:23;4.10;;;3.80;;
30335;SDS011;17142;47.990;7.846;2023-06-24T08:31:49;3.97;;;3.57;;
30335;SDS011;17142;47.990;7.846;2023-06-24T08:34:15;3.40;;;3.10;;
30335;SDS011;17142;47.990;7.846;2023-06-24T08:36:40;7.23;;;3.77;;
30335;SDS011;17142;47.990;7.846;2023-06-24T08:39:07;3.57;;;3.27;;
30335;SDS011;17142;47.990;7.846;2023-06-24T08:41:35;4.60;;;4.00;;
30335;SDS011;17142;47.990;7.846;2023-06-24T08:44:04;5.00;;;4.53;;
30335;SDS011;17142;47.990;7.846;2023-06-24T08:46:29;5.50;;;4.13;;
30335;SDS011;17142;47.990;7.846;2023-06-24T08:49:46;6.20;;;4.00;;
30335;SDS011;17142;47.990;7.846;2023-06-24T08:51:46;5.40;;;4.30;;
30335;SDS011;17142;47.990;7.846;2023-06-24T08:54:16;4.80;;;3.67;;
30335;SDS011;17142;47.990;7.846;2023-06-24T08:56:44;4.53;;;3.63;;
30335;SDS011;17142;47.990;7.846;2023-06-24T08:59:10;4.30;;;3.93;;
30335;SDS011;17142;47.990;7.846;2023-06-24T09:01:36;3.80;;;3.50;;
30335;SDS011;17142;47.990;7.846;2023-06-24T09:04:02;8.60;;;3.90;;
30335;SDS011;17142;47.990;7.846;2023-06-24T09:06:30;5.40;;;3.10;;
30335;SDS011;17142;47.990;7.846;2023-06-24T09:08:56;3.80;;;3.40;;
30335;SDS011;17142;47.990;7.846;2023-06-24T09:11:23;4.17;;;3.77;;
30335;SDS011;17142;47.990;7.846;2023-06-24T09:13:59;5.90;;;4.00;;
30335;SDS011;17142;47.990;7.846;2023-06-24T09:16:25;4.60;;;4.20;;
30335;SDS011;17142;47.990;7.846;2023-06-24T09:18:51;4.23;;;3.83;;
30335;SDS011;17142;47.990;7.846;2023-06-24T09:21:27;6.37;;;4.03;;
30335;SDS011;17142;47.990;7.846;2023-06-24T09:23:56;4.20;;;3.90;;
30335;SDS011;17142;47.990;7.846;2023-06-24T09:26:26;5.67;;;4.23;;
30335;SDS011;17142;47.990;7.846;2023-06-24T09:28:52;6.40;;;4.40;;
30335;SDS011;17142;47.990;7.846;2023-06-24T09:31:21;4.47;;;4.07;;
30335;SDS011;17142;47.990;7.846;2023-06-24T09:33:48;4.00;;;3.60;;
30335;SDS011;17142;47.990;7.846;2023-06-24T09:36:14;7.00;;;4.10;;
30335;SDS011;17142;47.990;7.846;2023-06-24T09:38:43;4.87;;;4.37;;
30335;SDS011;17142;47.990;7.846;2023-06-24T09:41:09;7.33;;;4.00;;
30335;SDS011;17142;47.990;7.846;2023-06-24T09:43:38;4.40;;;4.00;;
30335;SDS011;17142;47.990;7.846;2023-06-24T09:46:07;4.20;;;3.80;;
30335;SDS011;17142;47.990;7.846;2023-06-24T09:48:33;4.87;;;4.47;;
30335;SDS011;17142;47.990;7.846;2023-06-24T09:51:02;3.63;;;3.30;;
30335;SDS011;17142;47.990;7.846;2023-06-24T09:53:33;3.83;;;3.53;;
30335;SDS011;17142;47.990;7.846;2023-06-24T09:56:00;4.80;;;4.30;;
30335;SDS011;17142;47.990;7.846;2023-06-24T09:58:31;3.57;;;3.10;;
30335;SDS011;17142;47.990;7.846;2023-06-24T10:01:03;4.37;;;4.00;;
30335;SDS011;17142;47.990;7.846;2023-06-24T10:03:31;3.50;;;3.20;;
30335;SDS011;17142;47.990;7.846;2023-06-24T10:06:00;5.43;;;3.73;;
30335;SDS011;17142;47.990;7.846;2023-06-24T10:08:32;4.37;;;3.97;;
30335;SDS011;17142;47.990;7.846;2023-06-24T10:10:58;4.10;;;3.70;;
30335;SDS011;17142;47.990;7.846;2023-06-24T10:13:25;4.57;;;4.07;;
30335;SDS011;17142;47.990;7.846;2023-06-24T10:15:56;3.90;;;3.53;;
30335;SDS011;17142;47.990;7.846;2023-06-24T10:20:56;4.63;;;4.20;;
30335;SDS011;17142;47.990;7.846;2023-06-24T10:23:22;5.70;;;4.10;;
30335;SDS011;17142;47.990;7.846;2023-06-24T10:25:50;4.10;;;3.80;;
30335;SDS011;17142;47.990;7.846;2023-06-24T10:28:18;5.93;;;3.90;;
30335;SDS011;17142;47.990;7.846;2023-06-24T10:30:55;6.03;;;4.07;;
30335;SDS011;17142;47.990;7.846;2023-06-24T10:33:24;4.70;;;4.07;;
30335;SDS011;17142;47.990;7.846;2023-06-24T10:35:52;3.80;;;3.40;;
30335;SDS011;17142;47.990;7.846;2023-06-24T10:38:17;4.37;;;3.93;;
30335;SDS011;17142;47.990;7.846;2023-06-24T10:40:43;4.40;;;4.00;;
30335;SDS011;17142;47.990;7.846;2023-06-24T10:45:50;4.60;;;4.20;;
30335;SDS011;17142;47.990;7.846;2023-06-24T10:48:17;4.10;;;3.50;;
30335;SDS011;17142;47.990;7.846;2023-06-24T10:50:45;4.57;;;4.10;;
30335;SDS011;17142;47.990;7.846;2023-06-24T10:53:12;4.00;;;3.60;;
30335;SDS011;17142;47.990;7.846;2023-06-24T10:55:38;4.47;;;4.10;;
30335;SDS011;17142;47.990;7.846;2023-06-24T10:58:11;4.37;;;4.00;;
30335;SDS011;17142;47.990;7.846;2023-06-24T11:00:41;8.07;;;4.17;;
30335;SDS011;17142;47.990;7.846;2023-06-24T11:03:09;3.80;;;3.50;;
30335;SDS011;17142;47.990;7.846;2023-06-24T11:05:39;4.23;;;3.83;;
30335;SDS011;17142;47.990;7.846;2023-06-24T11:08:08;5.73;;;3.77;;
30335;SDS011;17142;47.990;7.846;2023-06-24T11:10:47;4.43;;;4.03;;
30335;SDS011;17142;47.990;7.846;2023-06-24T11:13:13;3.63;;;3.33;;
30335;SDS011;17142;47.990;7.846;2023-06-24T11:15:39;5.10;;;3.93;;
30335;SDS011;17142;47.990;7.846;2023-06-24T11:18:11;6.00;;;4.43;;
30335;SDS011;17142;47.990;7.846;2023-06-24T11:20:39;3.40;;;3.10;;
30335;SDS011;17142;47.990;7.846;2023-06-24T11:23:08;4.67;;;3.13;;
30335;SDS011;17142;47.990;7.846;2023-06-24T11:25:39;4.57;;;3.70;;
30335;SDS011;17142;47.990;7.846;2023-06-24T11:28:11;3.83;;;3.50;;
30335;SDS011;17142;47.990;7.846;2023-06-24T11:30:38;4.00;;;3.27;;
30335;SDS011;17142;47.990;7.846;2023-06-24T11:33:03;4.27;;;3.87;;
30335;SDS011;17142;47.990;7.846;2023-06-24T11:35:29;3.60;;;3.30;;
30335;SDS011;17142;47.990;7.846;2023-06-24T11:38:00;4.90;;;3.20;;
30335;SDS011;17142;47.990;7.846;2023-06-24T11:40:27;3.97;;;3.60;;
30335;SDS011;17142;47.990;7.846;2023-06-24T11:42:55;3.50;;;3.20;;
30335;SDS011;17142;47.990;7.846;2023-06-24T11:45:21;3.63;;;3.33;;
30335;SDS011;17142;47.990;7.846;2023-06-24T11:47:47;3.80;;;3.50;;
30335;SDS011;17142;47.990;7.846;2023-06-24T11:50:16;4.63;;;4.23;;
30335;SDS011;17142;47.990;7.846;2023-06-24T11:52:50;4.00;;;2.83;;
30335;SDS011;17142;47.990;7.846;2023-06-24T11:55:24;3.40;;;3.10;;
30335;SDS011;17142;47.990;7.846;2023-06-24T12:00:34;3.70;;;3.40;;
30335;SDS011;17142;47.990;7.846;2023-06-24T12:03:01;3.80;;;3.40;;
30335;SDS011;17142;47.990;7.846;2023-06-24T12:05:32;4.10;;;3.70;;
30335;SDS011;17142;47.990;7.846;2023-06-24T12:08:01;3.60;;;2.83;;
30335;SDS011;17142;47.990;7.846;2023-06-24T12:10:31;4.80;;;4.27;;
30335;SDS011;17142;47.990;7.846;2023-06-24T12:12:58;5.77;;;3.30;;
30335;SDS011;17142;47.990;7.846;2023-06-24T12:15:25;3.60;;;3.30;;
30335;SDS011;17142;47.990;7.846;2023-06-24T12:17:53;3.40;;;3.10;;
30335;SDS011;17142;47.990;7.846;2023-06-24T12:20:19;3.30;;;3.00;;
30335;SDS011;17142;47.990;7.846;2023-06-24T12:22:46;3.37;;;3.07;;
30335;SDS011;17142;47.990;7.846;2023-06-24T12:25:15;4.53;;;3.50;;
30335;SDS011;17142;47.990;7.846;2023-06-24T12:27:44;3.10;;;2.80;;
30335;SDS011;17142;47.990;7.846;2023-06-24T12:30:13;4.23;;;3.20;;
30335;SDS011;17142;47.990;7.846;2023-06-24T12:32:39;3.20;;;2.83;;
30335;SDS011;17142;47.990;7.846;2023-06-24T12:35:07;3.20;;;2.83;;
30335;SDS011;17142;47.990;7.846;2023-06-24T12:37:35;3.37;;;3.07;;
30335;SDS011;17142;47.990;7.846;2023-06-24T12:40:02;3.80;;;2.97;;
30335;SDS011;17142;47.990;7.846;2023-06-24T12:42:29;3.00;;;2.70;;
30335;SDS011;17142;47.990;7.846;2023-06-24T12:44:57;3.40;;;2.70;;
30335;SDS011;17142;47.990;7.846;2023-06-24T12:47:22;3.77;;;3.13;;
30335;SDS011;17142;47.990;7.846;2023-06-24T12:49:48;3.80;;;3.10;;
30335;SDS011;17142;47.990;7.846;2023-06-24T12:52:14;3.20;;;2.90;;
30335;SDS011;17142;47.990;7.846;2023-06-24T12:54:40;2.87;;;2.67;;
30335;SDS011;17142;47.990;7.846;2023-06-24T12:57:06;2.87;;;2.57;;
30335;SDS011;17142;47.990;7.846;2023-06-24T12:59:32;3.30;;;3.00;;
30335;SDS011;17142;47.990;7.846;2023-06-24T13:01:57;3.37;;;3.07;;
30335;SDS011;17142;47.990;7.846;2023-06-24T13:04:25;4.13;;;2.97;;
30335;SDS011;17142;47.990;7.846;2023-06-24T13:06:53;4.30;;;2.90;;
30335;SDS011;17142;47.990;7.846;2023-06-24T13:09:19;3.40;;;3.10;;
30335;SDS011;17142;47.990;7.846;2023-06-24T13:11:45;3.53;;;3.10;;
30335;SDS011;17142;47.990;7.846;2023-06-24T13:14:12;3.53;;;3.23;;
30335;SDS011;17142;47.990;7.846;2023-06-24T13:16:38;3.30;;;2.80;;
30335;SDS011;17142;47.990;7.846;2023-06-24T13:19:03;3.27;;;2.83;;
30335;SDS011;17142;47.990;7.846;2023-06-24T13:21:29;3.40;;;2.87;;
30335;SDS011;17142;47.990;7.846;2023-06-24T13:23:55;6.00;;;3.23;;
30335;SDS011;17142;47.990;7.846;2023-06-24T13:26:23;3.33;;;3.03;;
30335;SDS011;17142;47.990;7.846;2023-06-24T13:28:51;2.80;;;2.60;;
30335;SDS011;17142;47.990;7.846;2023-06-24T13:31:19;3.20;;;2.93;;
30335;SDS011;17142;47.990;7.846;2023-06-24T13:33:45;3.13;;;2.80;;
30335;SDS011;17142;47.990;7.846;2023-06-24T13:36:27;4.23;;;3.17;;
30335;SDS011;17142;47.990;7.846;2023-06-24T13:38:58;3.40;;;3.10;;
30335;SDS011;17142;47.990;7.846;2023-06-24T13:41:24;3.67;;;2.90;;
30335;SDS011;17142;47.990;7.846;2023-06-24T13:43:52;3.43;;;2.90;;
30335;SDS011;17142;47.990;7.846;2023-06-24T13:46:20;3.30;;;2.87;;
30335;SDS011;17142;47.990;7.846;2023-06-24T13:48:45;2.97;;;2.67;;
30335;SDS011;17142;47.990;7.846;2023-06-24T13:51:11;5.97;;;3.10;;
30335;SDS011;17142;47.990;7.846;2023-06-24T13:53:37;3.53;;;3.23;;
30335;SDS011;17142;47.990;7.846;2023-06-24T13:56:02;2.73;;;2.30;;
30335;SDS011;17142;47.990;7.846;2023-06-24T13:58:28;2.97;;;2.77;;
30335;SDS011;17142;47.990;7.846;2023-06-24T14:00:59;3.00;;;2.80;;
30335;SDS011;17142;47.990;7.846;2023-06-24T14:03:27;3.40;;;3.07;;
30335;SDS011;17142;47.990;7.846;2023-06-24T14:05:53;2.67;;;2.47;;
30335;SDS011;17142;47.990;7.846;2023-06-24T14:08:18;3.50;;;2.70;;
30335;SDS011;17142;47.990;7.846;2023-06-24T14:10:44;3.53;;;2.83;;
30335;SDS011;17142;47.990;7.846;2023-06-24T14:13:09;3.53;;;2.87;;
30335;SDS011;17142;47.990;7.846;2023-06-24T14:15:35;4.00;;;2.80;;
30335;SDS011;17142;47.990;7.846;2023-06-24T14:18:01;2.60;;;2.40;;
30335;SDS011;17142;47.990;7.846;2023-06-24T14:20:26;3.23;;;2.47;;
30335;SDS011;17142;47.990;7.846;2023-06-24T14:22:52;4.00;;;3.40;;
30335;SDS011;17142;47.990;7.846;2023-06-24T14:25:20;3.83;;;3.33;;
30335;SDS011;17142;47.990;7.846;2023-06-24T14:27:45;3.50;;;2.80;;
30335;SDS011;17142;47.990;7.846;2023-06-24T14:30:11;3.43;;;3.13;;
30335;SDS011;17142;47.990;7.846;2023-06-24T14:32:37;2.63;;;2.43;;
30335;SDS011;17142;47.990;7.846;2023-06-24T14:35:03;3.57;;;3.27;;
30335;SDS011;17142;47.990;7.846;2023-06-24T14:37:29;3.73;;;3.40;;
30335;SDS011;17142;47.990;7.846;2023-06-24T14:39:54;3.70;;;3.07;;
30335;SDS011;17142;47.990;7.846;2023-06-24T14:42:20;3.40;;;2.77;;
30335;SDS011;17142;47.990;7.846;2023-06-24T14:44:46;3.10;;;2.73;;
30335;SDS011;17142;47.990;7.846;2023-06-24T14:47:11;4.33;;;3.10;;
30335;SDS011;17142;47.990;7.846;2023-06-24T14:49:37;3.73;;;3.00;;
30335;SDS011;17142;47.990;7.846;2023-06-24T14:52:03;3.43;;;2.83;;
30335;SDS011;17142;47.990;7.846;2023-06-24T14:54:31;3.50;;;3.10;;
30335;SDS011;17142;47.990;7.846;2023-06-24T14:56:57;4.37;;;3.50;;
30335;SDS011;17142;47.990;7.846;2023-06-24T14:59:22;4.07;;;2.93;;
30335;SDS011;17142;47.990;7.846;2023-06-24T15:01:50;3.03;;;2.73;;
30335;SDS011;17142;47.990;7.846;2023-06-24T15:04:16;3.20;;;2.90;;
30335;SDS011;17142;47.990;7.846;2023-06-24T15:06:44;3.27;;;2.97;;
30335;SDS011;17142;47.990;7.846;2023-06-24T15:09:12;3.80;;;3.30;;
30335;SDS011;17142;47.990;7.846;2023-06-24T15:11:38;3.23;;;2.70;;
30335;SDS011;17142;47.990;7.846;2023-06-24T15:14:04;2.80;;;2.60;;
30335;SDS011;17142;47.990;7.846;2023-06-24T15:16:32;2.27;;;2.07;;
30335;SDS011;17142;47.990;7.846;2023-06-24T15:18:57;3.33;;;3.03;;
30335;SDS011;17142;47.990;7.846;2023-06-24T15:21:25;2.87;;;2.63;;
30335;SDS011;17142;47.990;7.846;2023-06-24T15:23:51;3.77;;;3.00;;
30335;SDS011;17142;47.990;7.846;2023-06-24T15:26:19;2.70;;;2.50;;
30335;SDS011;17142;47.990;7.846;2023-06-24T15:28:47;3.23;;;2.93;;
30335;SDS011;17142;47.990;7.846;2023-06-24T15:31:13;3.70;;;3.07;;
30335;SDS011;17142;47.990;7.846;2023-06-24T15:33:39;3.23;;;2.83;;
30335;SDS011;17142;47.990;7.846;2023-06-24T15:36:07;3.70;;;2.47;;
30335;SDS011;17142;47.990;7.846;2023-06-24T15:38:33;3.60;;;3.30;;
30335;SDS011;17142;47.990;7.846;2023-06-24T15:40:59;3.63;;;3.30;;
30335;SDS011;17142;47.990;7.846;2023-06-24T15:43:24;3.27;;;2.97;;
30335;SDS011;17142;47.990;7.846;2023-06-24T15:45:50;3.00;;;2.70;;
30335;SDS011;17142;47.990;7.846;2023-06-24T15:48:16;3.50;;;3.20;;
30335;SDS011;17142;47.990;7.846;2023-06-24T15:50:42;3.50;;;2.90;;
30335;SDS011;17142;47.990;7.846;2023-06-24T15:53:12;3.83;;;3.50;;
30335;SDS011;17142;47.990;7.846;2023-06-24T15:55:39;3.90;;;3.40;;
30335;SDS011;17142;47.990;7.846;2023-06-24T15:58:08;3.03;;;2.73;;
30335;SDS011;17142;47.990;7.846;2023-06-24T16:00:34;4.80;;;3.13;;
30335;SDS011;17142;47.990;7.846;2023-06-24T16:02:59;2.93;;;2.33;;
30335;SDS011;17142;47.990;7.846;2023-06-24T16:05:25;9.47;;;3.17;;
30335;SDS011;17142;47.990;7.846;2023-06-24T16:07:51;4.60;;;3.20;;
30335;SDS011;17142;47.990;7.846;2023-06-24T16:10:16;3.27;;;2.70;;
30335;SDS011;17142;47.990;7.846;2023-06-24T16:12:42;4.10;;;3.60;;
30335;SDS011;17142;47.990;7.846;2023-06-24T16:15:08;4.33;;;3.07;;
30335;SDS011;17142;47.990;7.846;2023-06-24T16:17:34;4.43;;;3.07;;
30335;SDS011;17142;47.990;7.846;2023-06-24T16:19:59;3.30;;;3.00;;
30335;SDS011;17142;47.990;7.846;2023-06-24T16:22:25;3.77;;;2.80;;
30335;SDS011;17142;47.990;7.846;2023-06-24T16:24:51;3.47;;;3.17;;
30335;SDS011;17142;47.990;7.846;2023-06-24T16:27:16;3.83;;;3.43;;
30335;SDS011;17142;47.990;7.846;2023-06-24T16:29:44;10.70;;;3.67;;
30335;SDS011;17142;47.990;7.846;2023-06-24T16:32:10;3.90;;;3.00;;
30335;SDS011;17142;47.990;7.846;2023-06-24T16:34:35;4.00;;;2.90;;
30335;SDS011;17142;47.990;7.846;2023-06-24T16:37:04;3.43;;;3.13;;
30335;SDS011;17142;47.990;7.846;2023-06-24T16:39:29;3.40;;;2.93;;
30335;SDS011;17142;47.990;7.846;2023-06-24T16:41:55;3.70;;;2.87;;
30335;SDS011;17142;47.990;7.846;2023-06-24T16:44:21;2.97;;;2.77;;
30335;SDS011;17142;47.990;7.846;2023-06-24T16:46:49;3.23;;;2.77;;
30335;SDS011;17142;47.990;7.846;2023-06-24T16:49:17;3.07;;;2.77;;
30335;SDS011;17142;47.990;7.846;2023-06-24T16:51:43;3.93;;;3.53;;
30335;SDS011;17142;47.990;7.846;2023-06-24T16:54:08;3.40;;;3.10;;
30335;SDS011;17142;47.990;7.846;2023-06-24T16:56:34;5.67;;;3.63;;
30335;SDS011;17142;47.990;7.846;2023-06-24T16:59:00;3.17;;;2.87;;
30335;SDS011;17142;47.990;7.846;2023-06-24T17:01:26;4.37;;;3.00;;
30335;SDS011;17142;47.990;7.846;2023-06-24T17:03:51;3.13;;;2.73;;
30335;SDS011;17142;47.990;7.846;2023-06-24T17:06:19;3.50;;;2.80;;
30335;SDS011;17142;47.990;7.846;2023-06-24T17:08:45;3.23;;;2.93;;
30335;SDS011;17142;47.990;7.846;2023-06-24T17:11:11;3.37;;;3.07;;
30335;SDS011;17142;47.990;7.846;2023-06-24T17:13:36;2.73;;;2.47;;
30335;SDS011;17142;47.990;7.846;2023-06-24T17:16:06;2.83;;;2.63;;
30335;SDS011;17142;47.990;7.846;2023-06-24T17:18:34;3.47;;;3.13;;
30335;SDS011;17142;47.990;7.846;2023-06-24T17:21:04;4.50;;;2.40;;
30335;SDS011;17142;47.990;7.846;2023-06-24T17:23:30;3.53;;;3.23;;
30335;SDS011;17142;47.990;7.846;2023-06-24T17:25:58;3.53;;;3.23;;
30335;SDS011;17142;47.990;7.846;2023-06-24T17:28:24;3.03;;;2.70;;
30335;SDS011;17142;47.990;7.846;2023-06-24T17:30:49;3.30;;;2.87;;
30335;SDS011;17142;47.990;7.846;2023-06-24T17:33:15;3.37;;;3.00;;
30335;SDS011;17142;47.990;7.846;2023-06-24T17:35:43;3.40;;;3.10;;
30335;SDS011;17142;47.990;7.846;2023-06-24T17:38:11;3.80;;;3.50;;
30335;SDS011;17142;47.990;7.846;2023-06-24T17:40:37;3.40;;;3.10;;
30335;SDS011;17142;47.990;7.846;2023-06-24T17:43:05;3.40;;;3.10;;
30335;SDS011;17142;47.990;7.846;2023-06-24T17:45:30;3.17;;;2.87;;
30335;SDS011;17142;47.990;7.846;2023-06-24T17:47:56;3.67;;;3.37;;
30335;SDS011;17142;47.990;7.846;2023-06-24T17:50:21;3.53;;;3.23;;
30335;SDS011;17142;47.990;7.846;2023-06-24T17:52:50;3.93;;;3.63;;
30335;SDS011;17142;47.990;7.846;2023-06-24T17:55:18;3.40;;;2.97;;
30335;SDS011;17142;47.990;7.846;2023-06-24T17:57:44;4.20;;;3.80;;
30335;SDS011;17142;47.990;7.846;2023-06-24T18:00:10;3.83;;;3.47;;
30335;SDS011;17142;47.990;7.846;2023-06-24T18:02:36;2.73;;;2.53;;
30335;SDS011;17142;47.990;7.846;2023-06-24T18:05:02;3.43;;;3.10;;
30335;SDS011;17142;47.990;7.846;2023-06-24T18:07:30;3.10;;;2.90;;
30335;SDS011;17142;47.990;7.846;2023-06-24T18:09:56;4.07;;;3.67;;
30335;SDS011;17142;47.990;7.846;2023-06-24T18:12:22;2.77;;;2.57;;
30335;SDS011;17142;47.990;7.846;2023-06-24T18:14:51;4.43;;;3.17;;
30335;SDS011;17142;47.990;7.846;2023-06-24T18:17:16;4.50;;;2.97;;
30335;SDS011;17142;47.990;7.846;2023-06-24T18:19:42;2.90;;;2.60;;
30335;SDS011;17142;47.990;7.846;2023-06-24T18:22:09;3.23;;;2.93;;
30335;SDS011;17142;47.990;7.846;2023-06-24T18:24:38;3.53;;;3.23;;
30335;SDS011;17142;47.990;7.846;2023-06-24T18:27:08;3.70;;;3.30;;
30335;SDS011;17142;47.990;7.846;2023-06-24T18:29:36;5.70;;;3.10;;
30335;SDS011;17142;47.990;7.846;2023-06-24T18:32:02;3.10;;;2.80;;
30335;SDS011;17142;47.990;7.846;2023-06-24T18:34:28;3.10;;;2.50;;
30335;SDS011;17142;47.990;7.846;2023-06-24T18:36:54;4.77;;;2.90;;
30335;SDS011;17142;47.990;7.846;2023-06-24T18:39:21;3.10;;;2.80;;
30335;SDS011;17142;47.990;7.846;2023-06-24T18:41:47;3.80;;;3.30;;
30335;SDS011;17142;47.990;7.846;2023-06-24T18:44:13;3.57;;;2.97;;
30335;SDS011;17142;47.990;7.846;2023-06-24T18:46:38;3.30;;;3.00;;
30335;SDS011;17142;47.990;7.846;2023-06-24T18:49:06;3.00;;;2.70;;
30335;SDS011;17142;47.990;7.846;2023-06-24T18:51:32;2.97;;;2.77;;
30335;SDS011;17142;47.990;7.846;2023-06-24T18:53:58;3.00;;;2.80;;
30335;SDS011;17142;47.990;7.846;2023-06-24T18:56:26;3.30;;;3.00;;
30335;SDS011;17142;47.990;7.846;2023-06-24T18:58:51;3.03;;;2.73;;
30335;SDS011;17142;47.990;7.846;2023-06-24T19:01:17;3.50;;;3.20;;
30335;SDS011;17142;47.990;7.846;2023-06-24T19:03:46;4.07;;;3.67;;
30335;SDS011;17142;47.990;7.846;2023-06-24T19:06:11;4.40;;;3.30;;
30335;SDS011;17142;47.990;7.846;2023-06-24T19:08:37;3.33;;;3.10;;
30335;SDS011;17142;47.990;7.846;2023-06-24T19:11:03;3.30;;;3.00;;
30335;SDS011;17142;47.990;7.846;2023-06-24T19:13:28;3.73;;;3.43;;
30335;SDS011;17142;47.990;7.846;2023-06-24T19:15:54;4.50;;;4.10;;
30335;SDS011;17142;47.990;7.846;2023-06-24T19:18:19;4.13;;;3.73;;
30335;SDS011;17142;47.990;7.846;2023-06-24T19:20:45;3.93;;;3.40;;
30335;SDS011;17142;47.990;7.846;2023-06-24T19:23:12;4.37;;;3.23;;
30335;SDS011;17142;47.990;7.846;2023-06-24T19:25:37;3.67;;;3.37;;
30335;SDS011;17142;47.990;7.846;2023-06-24T19:28:09;3.77;;;3.47;;
30335;SDS011;17142;47.990;7.846;2023-06-24T19:30:37;3.83;;;3.30;;
30335;SDS011;17142;47.990;7.846;2023-06-24T19:33:02;4.70;;;3.53;;
30335;SDS011;17142;47.990;7.846;2023-06-24T19:35:28;4.63;;;3.80;;
30335;SDS011;17142;47.990;7.846;2023-06-24T19:37:56;4.00;;;3.60;;
30335;SDS011;17142;47.990;7.846;2023-06-24T19:40:22;3.60;;;3.30;;
30335;SDS011;17142;47.990;7.846;2023-06-24T19:42:48;3.83;;;3.53;;
30335;SDS011;17142;47.990;7.846;2023-06-24T19:45:14;4.20;;;3.67;;
30335;SDS011;17142;47.990;7.846;2023-06-24T19:47:42;4.30;;;3.63;;
30335;SDS011;17142;47.990;7.846;2023-06-24T19:50:07;5.07;;;4.30;;
30335;SDS011;17142;47.990;7.846;2023-06-24T19:52:37;4.17;;;3.87;;
30335;SDS011;17142;47.990;7.846;2023-06-24T19:55:05;4.20;;;3.80;;
30335;SDS011;17142;47.990;7.846;2023-06-24T19:57:31;5.77;;;5.27;;
30335;SDS011;17142;47.990;7.846;2023-06-24T19:59:58;5.60;;;4.13;;
30335;SDS011;17142;47.990;7.846;2023-06-24T20:02:26;3.50;;;3.20;;
30335;SDS011;17142;47.990;7.846;2023-06-24T20:04:52;4.00;;;3.60;;
30335;SDS011;17142;47.990;7.846;2023-06-24T20:07:17;4.37;;;3.70;;
30335;SDS011;17142;47.990;7.846;2023-06-24T20:09:50;3.97;;;3.50;;
30335;SDS011;17142;47.990;7.846;2023-06-24T20:12:15;3.80;;;3.33;;
30335;SDS011;17142;47.990;7.846;2023-06-24T20:14:41;3.93;;;3.63;;
30335;SDS011;17142;47.990;7.846;2023-06-24T20:17:07;4.00;;;3.60;;
30335;SDS011;17142;47.990;7.846;2023-06-24T20:19:33;4.30;;;3.90;;
30335;SDS011;17142;47.990;7.846;2023-06-24T20:21:59;4.83;;;4.37;;
30335;SDS011;17142;47.990;7.846;2023-06-24T20:24:25;5.27;;;4.30;;
30335;SDS011;17142;47.990;7.846;2023-06-24T20:26:50;5.63;;;5.00;;
30335;SDS011;17142;47.990;7.846;2023-06-24T20:29:16;4.17;;;3.77;;
30335;SDS011;17142;47.990;7.846;2023-06-24T20:31:42;4.97;;;4.47;;